<?xml version="1.0" encoding="UTF-8" standalone="no" ?>
<gpx xmlns="http://www.topografix.com/GPX/1/1" xmlns:xsi="http://www.w3.org/2001/XMLSchema-instance" xsi:schemaLocation="http://www.topografix.com/GPX/1/1 http://www.topografix.com/GPX/1/1/gpx.xsd" version="1.1" creator="VisuGPX - https://www.visugpx.com">
  <metadata>
    <name>Pic de Montaigu-65-Ski</name>
    <desc><![CDATA[Beau sommet de ski de rando avec un final technique (crête)]]></desc>
  </metadata>
  <trk>
    <name><![CDATA[2021-12-19 Montaigu ]]></name>
    <desc><![CDATA[<p>Heure de départ: 09:38 19 déc. 2021<br/>Heure d'arrivée: 15:06 19 déc. 2021<br/>Distance: 11,3 km (05:27)<br/>Temps déplacement: 02:14<br/>Vitesse moyenne: 2,07 km/h<br/>Vitesse moyenne mouv.: 5,05 km/h<br/>Vitesse Max.: 29,52 km/h<br/>Altitude minimale: 1068 m<br/>Altitude maximale: 2308 m<br/>Vitesse de montée: 328,7 m/h<br/>Vitesse de descente: -736,8 m/h<br/>Gain d'altitude: 1234 m<br/>Perte d'altitude: -1231 m<br/>Temps de montée: 03:45<br/>Temps de descente: 01:40<br/></p><hr align="center" width="480" style="height: 2px; width: 517px"/>]]></desc>
    <extensions>
      <line xmlns="http://www.topografix.com/GPX/gpx_style/0/2">
        <color>0000FF</color>
        <width>4</width>
      </line>
    </extensions>
    <trkseg>
      <trkpt lat="42.9622" lon="0.09001">
        <ele>1068</ele>
        <time>2021-12-19T08:38:32Z</time>
      </trkpt>
      <trkpt lat="42.96224" lon="0.08976">
        <ele>1075</ele>
        <time>2021-12-19T08:39:57Z</time>
      </trkpt>
      <trkpt lat="42.96221" lon="0.08951">
        <ele>1072</ele>
        <time>2021-12-19T08:40:18Z</time>
      </trkpt>
      <trkpt lat="42.96218" lon="0.08925">
        <ele>1075</ele>
        <time>2021-12-19T08:40:40Z</time>
      </trkpt>
      <trkpt lat="42.96214" lon="0.08901">
        <ele>1077</ele>
        <time>2021-12-19T08:40:55Z</time>
      </trkpt>
      <trkpt lat="42.96204" lon="0.08879">
        <ele>1080</ele>
        <time>2021-12-19T08:41:13Z</time>
      </trkpt>
      <trkpt lat="42.96193" lon="0.08859">
        <ele>1080.9</ele>
        <time>2021-12-19T08:41:30Z</time>
      </trkpt>
      <trkpt lat="42.96175" lon="0.08851">
        <ele>1081</ele>
        <time>2021-12-19T08:41:57Z</time>
      </trkpt>
      <trkpt lat="42.96169" lon="0.08827">
        <ele>1085</ele>
        <time>2021-12-19T08:42:19Z</time>
      </trkpt>
      <trkpt lat="42.9616" lon="0.08806">
        <ele>1083</ele>
        <time>2021-12-19T08:44:03Z</time>
      </trkpt>
      <trkpt lat="42.96147" lon="0.08788">
        <ele>1089</ele>
        <time>2021-12-19T08:44:25Z</time>
      </trkpt>
      <trkpt lat="42.96136" lon="0.08767">
        <ele>1091.02</ele>
        <time>2021-12-19T08:44:45Z</time>
      </trkpt>
      <trkpt lat="42.96123" lon="0.08748">
        <ele>1094.97</ele>
        <time>2021-12-19T08:45:15Z</time>
      </trkpt>
      <trkpt lat="42.96114" lon="0.08726">
        <ele>1095</ele>
        <time>2021-12-19T08:45:46Z</time>
      </trkpt>
      <trkpt lat="42.96123" lon="0.08703">
        <ele>1098</ele>
        <time>2021-12-19T08:46:50Z</time>
      </trkpt>
      <trkpt lat="42.96137" lon="0.08688">
        <ele>1102</ele>
        <time>2021-12-19T08:47:19Z</time>
      </trkpt>
      <trkpt lat="42.96148" lon="0.08669">
        <ele>1110</ele>
        <time>2021-12-19T08:47:53Z</time>
      </trkpt>
      <trkpt lat="42.96161" lon="0.0865">
        <ele>1112</ele>
        <time>2021-12-19T08:48:24Z</time>
      </trkpt>
      <trkpt lat="42.96177" lon="0.08636">
        <ele>1119</ele>
        <time>2021-12-19T08:48:57Z</time>
      </trkpt>
      <trkpt lat="42.96193" lon="0.08625">
        <ele>1119</ele>
        <time>2021-12-19T08:49:31Z</time>
      </trkpt>
      <trkpt lat="42.96208" lon="0.08611">
        <ele>1127</ele>
        <time>2021-12-19T08:50:10Z</time>
      </trkpt>
      <trkpt lat="42.96225" lon="0.08604">
        <ele>1141.99</ele>
        <time>2021-12-19T08:51:22Z</time>
      </trkpt>
      <trkpt lat="42.96237" lon="0.08585">
        <ele>1142</ele>
        <time>2021-12-19T08:52:36Z</time>
      </trkpt>
      <trkpt lat="42.96229" lon="0.08561">
        <ele>1156</ele>
        <time>2021-12-19T08:54:15Z</time>
      </trkpt>
      <trkpt lat="42.96227" lon="0.08537">
        <ele>1167</ele>
        <time>2021-12-19T08:55:01Z</time>
      </trkpt>
      <trkpt lat="42.96229" lon="0.08512">
        <ele>1176</ele>
        <time>2021-12-19T08:55:38Z</time>
      </trkpt>
      <trkpt lat="42.96224" lon="0.08488">
        <ele>1185</ele>
        <time>2021-12-19T08:55:55Z</time>
      </trkpt>
      <trkpt lat="42.96224" lon="0.08463">
        <ele>1195</ele>
        <time>2021-12-19T08:56:34Z</time>
      </trkpt>
      <trkpt lat="42.96221" lon="0.08439">
        <ele>1183.98</ele>
        <time>2021-12-19T08:57:02Z</time>
      </trkpt>
      <trkpt lat="42.96218" lon="0.08413">
        <ele>1191.98</ele>
        <time>2021-12-19T08:57:33Z</time>
      </trkpt>
      <trkpt lat="42.96215" lon="0.08388">
        <ele>1196.2</ele>
        <time>2021-12-19T08:58:03Z</time>
      </trkpt>
      <trkpt lat="42.96214" lon="0.08363">
        <ele>1198</ele>
        <time>2021-12-19T08:58:33Z</time>
      </trkpt>
      <trkpt lat="42.96218" lon="0.08338">
        <ele>1203</ele>
        <time>2021-12-19T08:59:00Z</time>
      </trkpt>
      <trkpt lat="42.96215" lon="0.08312">
        <ele>1206</ele>
        <time>2021-12-19T08:59:26Z</time>
      </trkpt>
      <trkpt lat="42.96215" lon="0.08288">
        <ele>1210</ele>
        <time>2021-12-19T08:59:55Z</time>
      </trkpt>
      <trkpt lat="42.96221" lon="0.08264">
        <ele>1212</ele>
        <time>2021-12-19T09:00:29Z</time>
      </trkpt>
      <trkpt lat="42.96222" lon="0.08239">
        <ele>1225.91</ele>
        <time>2021-12-19T09:01:33Z</time>
      </trkpt>
      <trkpt lat="42.96227" lon="0.08215">
        <ele>1234</ele>
        <time>2021-12-19T09:02:06Z</time>
      </trkpt>
      <trkpt lat="42.96231" lon="0.08191">
        <ele>1237</ele>
        <time>2021-12-19T09:02:40Z</time>
      </trkpt>
      <trkpt lat="42.96231" lon="0.08166">
        <ele>1239.1</ele>
        <time>2021-12-19T09:03:39Z</time>
      </trkpt>
      <trkpt lat="42.96239" lon="0.08143">
        <ele>1240</ele>
        <time>2021-12-19T09:04:11Z</time>
      </trkpt>
      <trkpt lat="42.96248" lon="0.08121">
        <ele>1243</ele>
        <time>2021-12-19T09:04:44Z</time>
      </trkpt>
      <trkpt lat="42.96249" lon="0.08096">
        <ele>1247</ele>
        <time>2021-12-19T09:05:07Z</time>
      </trkpt>
      <trkpt lat="42.96254" lon="0.08072">
        <ele>1270</ele>
        <time>2021-12-19T09:05:50Z</time>
      </trkpt>
      <trkpt lat="42.96253" lon="0.08047">
        <ele>1273</ele>
        <time>2021-12-19T09:06:22Z</time>
      </trkpt>
      <trkpt lat="42.96266" lon="0.08029">
        <ele>1273</ele>
        <time>2021-12-19T09:06:51Z</time>
      </trkpt>
      <trkpt lat="42.96268" lon="0.08005">
        <ele>1274</ele>
        <time>2021-12-19T09:07:16Z</time>
      </trkpt>
      <trkpt lat="42.96276" lon="0.07982">
        <ele>1275</ele>
        <time>2021-12-19T09:07:44Z</time>
      </trkpt>
      <trkpt lat="42.96283" lon="0.07959">
        <ele>1295</ele>
        <time>2021-12-19T09:08:15Z</time>
      </trkpt>
      <trkpt lat="42.96286" lon="0.07934">
        <ele>1291</ele>
        <time>2021-12-19T09:08:42Z</time>
      </trkpt>
      <trkpt lat="42.96303" lon="0.07944">
        <ele>1291</ele>
        <time>2021-12-19T09:10:24Z</time>
      </trkpt>
      <trkpt lat="42.96307" lon="0.07968">
        <ele>1314</ele>
        <time>2021-12-19T09:10:55Z</time>
      </trkpt>
      <trkpt lat="42.96308" lon="0.07993">
        <ele>1315</ele>
        <time>2021-12-19T09:11:39Z</time>
      </trkpt>
      <trkpt lat="42.96318" lon="0.08014">
        <ele>1315</ele>
        <time>2021-12-19T09:12:09Z</time>
      </trkpt>
      <trkpt lat="42.96324" lon="0.08037">
        <ele>1315</ele>
        <time>2021-12-19T09:12:41Z</time>
      </trkpt>
      <trkpt lat="42.96329" lon="0.08061">
        <ele>1314</ele>
        <time>2021-12-19T09:13:14Z</time>
      </trkpt>
      <trkpt lat="42.96331" lon="0.08086">
        <ele>1312.05</ele>
        <time>2021-12-19T09:13:33Z</time>
      </trkpt>
      <trkpt lat="42.96332" lon="0.08111">
        <ele>1309.2</ele>
        <time>2021-12-19T09:13:50Z</time>
      </trkpt>
      <trkpt lat="42.96342" lon="0.08132">
        <ele>1332</ele>
        <time>2021-12-19T09:14:25Z</time>
      </trkpt>
      <trkpt lat="42.96354" lon="0.08152">
        <ele>1330</ele>
        <time>2021-12-19T09:15:03Z</time>
      </trkpt>
      <trkpt lat="42.96362" lon="0.08173">
        <ele>1350.05</ele>
        <time>2021-12-19T09:15:25Z</time>
      </trkpt>
      <trkpt lat="42.96368" lon="0.08197">
        <ele>1345.04</ele>
        <time>2021-12-19T09:15:49Z</time>
      </trkpt>
      <trkpt lat="42.96377" lon="0.08219">
        <ele>1345</ele>
        <time>2021-12-19T09:16:24Z</time>
      </trkpt>
      <trkpt lat="42.96384" lon="0.08242">
        <ele>1339</ele>
        <time>2021-12-19T09:16:48Z</time>
      </trkpt>
      <trkpt lat="42.964" lon="0.08255">
        <ele>1343</ele>
        <time>2021-12-19T09:17:42Z</time>
      </trkpt>
      <trkpt lat="42.96418" lon="0.08261">
        <ele>1347.55</ele>
        <time>2021-12-19T09:18:17Z</time>
      </trkpt>
      <trkpt lat="42.96436" lon="0.08254">
        <ele>1348</ele>
        <time>2021-12-19T09:18:50Z</time>
      </trkpt>
      <trkpt lat="42.96453" lon="0.08244">
        <ele>1367</ele>
        <time>2021-12-19T09:22:19Z</time>
      </trkpt>
      <trkpt lat="42.96461" lon="0.08221">
        <ele>1381.59</ele>
        <time>2021-12-19T09:22:55Z</time>
      </trkpt>
      <trkpt lat="42.9648" lon="0.08219">
        <ele>1386</ele>
        <time>2021-12-19T09:23:22Z</time>
      </trkpt>
      <trkpt lat="42.96497" lon="0.08212">
        <ele>1386</ele>
        <time>2021-12-19T09:23:54Z</time>
      </trkpt>
      <trkpt lat="42.96514" lon="0.082">
        <ele>1394</ele>
        <time>2021-12-19T09:24:19Z</time>
      </trkpt>
      <trkpt lat="42.96531" lon="0.08195">
        <ele>1400.99</ele>
        <time>2021-12-19T09:24:46Z</time>
      </trkpt>
      <trkpt lat="42.96549" lon="0.08198">
        <ele>1401</ele>
        <time>2021-12-19T09:25:09Z</time>
      </trkpt>
      <trkpt lat="42.96565" lon="0.08185">
        <ele>1418</ele>
        <time>2021-12-19T09:25:39Z</time>
      </trkpt>
      <trkpt lat="42.96582" lon="0.08196">
        <ele>1406.1</ele>
        <time>2021-12-19T09:26:29Z</time>
      </trkpt>
      <trkpt lat="42.96596" lon="0.08212">
        <ele>1415</ele>
        <time>2021-12-19T09:27:03Z</time>
      </trkpt>
      <trkpt lat="42.96604" lon="0.08234">
        <ele>1407</ele>
        <time>2021-12-19T09:27:37Z</time>
      </trkpt>
      <trkpt lat="42.96622" lon="0.08228">
        <ele>1415</ele>
        <time>2021-12-19T09:28:02Z</time>
      </trkpt>
      <trkpt lat="42.9664" lon="0.08222">
        <ele>1417.92</ele>
        <time>2021-12-19T09:28:36Z</time>
      </trkpt>
      <trkpt lat="42.96655" lon="0.08207">
        <ele>1425</ele>
        <time>2021-12-19T09:29:07Z</time>
      </trkpt>
      <trkpt lat="42.96668" lon="0.08189">
        <ele>1433.91</ele>
        <time>2021-12-19T09:29:32Z</time>
      </trkpt>
      <trkpt lat="42.9668" lon="0.0817">
        <ele>1434</ele>
        <time>2021-12-19T09:30:08Z</time>
      </trkpt>
      <trkpt lat="42.96691" lon="0.0815">
        <ele>1445</ele>
        <time>2021-12-19T09:30:36Z</time>
      </trkpt>
      <trkpt lat="42.96682" lon="0.08129">
        <ele>1458</ele>
        <time>2021-12-19T09:31:11Z</time>
      </trkpt>
      <trkpt lat="42.96665" lon="0.08118">
        <ele>1455.27</ele>
        <time>2021-12-19T09:31:45Z</time>
      </trkpt>
      <trkpt lat="42.96653" lon="0.081">
        <ele>1471</ele>
        <time>2021-12-19T09:32:11Z</time>
      </trkpt>
      <trkpt lat="42.96642" lon="0.08079">
        <ele>1480.92</ele>
        <time>2021-12-19T09:32:39Z</time>
      </trkpt>
      <trkpt lat="42.96625" lon="0.08069">
        <ele>1477</ele>
        <time>2021-12-19T09:33:05Z</time>
      </trkpt>
      <trkpt lat="42.96607" lon="0.0806">
        <ele>1470</ele>
        <time>2021-12-19T09:33:29Z</time>
      </trkpt>
      <trkpt lat="42.9659" lon="0.08049">
        <ele>1481</ele>
        <time>2021-12-19T09:33:56Z</time>
      </trkpt>
      <trkpt lat="42.96574" lon="0.08039">
        <ele>1475</ele>
        <time>2021-12-19T09:34:27Z</time>
      </trkpt>
      <trkpt lat="42.96558" lon="0.08027">
        <ele>1481.3</ele>
        <time>2021-12-19T09:34:58Z</time>
      </trkpt>
      <trkpt lat="42.9655" lon="0.08004">
        <ele>1477</ele>
        <time>2021-12-19T09:35:48Z</time>
      </trkpt>
      <trkpt lat="42.96548" lon="0.07979">
        <ele>1482</ele>
        <time>2021-12-19T09:36:16Z</time>
      </trkpt>
      <trkpt lat="42.96552" lon="0.07955">
        <ele>1486</ele>
        <time>2021-12-19T09:36:46Z</time>
      </trkpt>
      <trkpt lat="42.9657" lon="0.0795">
        <ele>1499</ele>
        <time>2021-12-19T09:37:21Z</time>
      </trkpt>
      <trkpt lat="42.96589" lon="0.07951">
        <ele>1509</ele>
        <time>2021-12-19T09:37:55Z</time>
      </trkpt>
      <trkpt lat="42.96606" lon="0.07943">
        <ele>1516</ele>
        <time>2021-12-19T09:38:26Z</time>
      </trkpt>
      <trkpt lat="42.96624" lon="0.07936">
        <ele>1523</ele>
        <time>2021-12-19T09:38:50Z</time>
      </trkpt>
      <trkpt lat="42.96643" lon="0.07933">
        <ele>1528.84</ele>
        <time>2021-12-19T09:39:22Z</time>
      </trkpt>
      <trkpt lat="42.9666" lon="0.07927">
        <ele>1529</ele>
        <time>2021-12-19T09:39:49Z</time>
      </trkpt>
      <trkpt lat="42.96678" lon="0.0792">
        <ele>1534</ele>
        <time>2021-12-19T09:40:17Z</time>
      </trkpt>
      <trkpt lat="42.96694" lon="0.07908">
        <ele>1541</ele>
        <time>2021-12-19T09:40:46Z</time>
      </trkpt>
      <trkpt lat="42.96712" lon="0.07903">
        <ele>1545</ele>
        <time>2021-12-19T09:41:20Z</time>
      </trkpt>
      <trkpt lat="42.9673" lon="0.07899">
        <ele>1547</ele>
        <time>2021-12-19T09:41:50Z</time>
      </trkpt>
      <trkpt lat="42.96747" lon="0.0789">
        <ele>1547</ele>
        <time>2021-12-19T09:42:22Z</time>
      </trkpt>
      <trkpt lat="42.96744" lon="0.07865">
        <ele>1557</ele>
        <time>2021-12-19T09:43:02Z</time>
      </trkpt>
      <trkpt lat="42.96739" lon="0.07841">
        <ele>1565</ele>
        <time>2021-12-19T09:43:30Z</time>
      </trkpt>
      <trkpt lat="42.96736" lon="0.07816">
        <ele>1571</ele>
        <time>2021-12-19T09:44:01Z</time>
      </trkpt>
      <trkpt lat="42.96733" lon="0.07791">
        <ele>1578</ele>
        <time>2021-12-19T09:44:32Z</time>
      </trkpt>
      <trkpt lat="42.96728" lon="0.07767">
        <ele>1585</ele>
        <time>2021-12-19T09:45:07Z</time>
      </trkpt>
      <trkpt lat="42.9673" lon="0.07742">
        <ele>1593</ele>
        <time>2021-12-19T09:45:52Z</time>
      </trkpt>
      <trkpt lat="42.96732" lon="0.07717">
        <ele>1602</ele>
        <time>2021-12-19T09:46:30Z</time>
      </trkpt>
      <trkpt lat="42.9672" lon="0.07698">
        <ele>1596</ele>
        <time>2021-12-19T09:47:08Z</time>
      </trkpt>
      <trkpt lat="42.96726" lon="0.07675">
        <ele>1608.99</ele>
        <time>2021-12-19T09:47:38Z</time>
      </trkpt>
      <trkpt lat="42.96712" lon="0.07659">
        <ele>1614</ele>
        <time>2021-12-19T09:48:06Z</time>
      </trkpt>
      <trkpt lat="42.96697" lon="0.07645">
        <ele>1614</ele>
        <time>2021-12-19T09:48:36Z</time>
      </trkpt>
      <trkpt lat="42.96685" lon="0.07626">
        <ele>1621</ele>
        <time>2021-12-19T09:49:18Z</time>
      </trkpt>
      <trkpt lat="42.96691" lon="0.07602">
        <ele>1629</ele>
        <time>2021-12-19T09:50:30Z</time>
      </trkpt>
      <trkpt lat="42.96705" lon="0.07586">
        <ele>1635</ele>
        <time>2021-12-19T09:53:32Z</time>
      </trkpt>
      <trkpt lat="42.96712" lon="0.07563">
        <ele>1645</ele>
        <time>2021-12-19T09:54:17Z</time>
      </trkpt>
      <trkpt lat="42.96721" lon="0.07542">
        <ele>1651</ele>
        <time>2021-12-19T09:55:51Z</time>
      </trkpt>
      <trkpt lat="42.96734" lon="0.07523">
        <ele>1661.98</ele>
        <time>2021-12-19T10:00:45Z</time>
      </trkpt>
      <trkpt lat="42.96742" lon="0.07501">
        <ele>1662</ele>
        <time>2021-12-19T10:01:15Z</time>
      </trkpt>
      <trkpt lat="42.96753" lon="0.07481">
        <ele>1672</ele>
        <time>2021-12-19T10:06:25Z</time>
      </trkpt>
      <trkpt lat="42.96766" lon="0.07462">
        <ele>1676</ele>
        <time>2021-12-19T10:06:54Z</time>
      </trkpt>
      <trkpt lat="42.96776" lon="0.07441">
        <ele>1677</ele>
        <time>2021-12-19T10:07:21Z</time>
      </trkpt>
      <trkpt lat="42.96794" lon="0.0744">
        <ele>1686</ele>
        <time>2021-12-19T10:08:00Z</time>
      </trkpt>
      <trkpt lat="42.96812" lon="0.07439">
        <ele>1694</ele>
        <time>2021-12-19T10:08:35Z</time>
      </trkpt>
      <trkpt lat="42.96824" lon="0.07419">
        <ele>1694</ele>
        <time>2021-12-19T10:09:04Z</time>
      </trkpt>
      <trkpt lat="42.96841" lon="0.07426">
        <ele>1705</ele>
        <time>2021-12-19T10:09:35Z</time>
      </trkpt>
      <trkpt lat="42.96851" lon="0.07406">
        <ele>1708</ele>
        <time>2021-12-19T10:10:08Z</time>
      </trkpt>
      <trkpt lat="42.96868" lon="0.07397">
        <ele>1722</ele>
        <time>2021-12-19T10:10:50Z</time>
      </trkpt>
      <trkpt lat="42.96884" lon="0.07409">
        <ele>1722</ele>
        <time>2021-12-19T10:11:26Z</time>
      </trkpt>
      <trkpt lat="42.96901" lon="0.07421">
        <ele>1729</ele>
        <time>2021-12-19T10:11:53Z</time>
      </trkpt>
      <trkpt lat="42.96919" lon="0.07416">
        <ele>1734.17</ele>
        <time>2021-12-19T10:12:39Z</time>
      </trkpt>
      <trkpt lat="42.96929" lon="0.07396">
        <ele>1736</ele>
        <time>2021-12-19T10:13:09Z</time>
      </trkpt>
      <trkpt lat="42.96936" lon="0.07373">
        <ele>1743</ele>
        <time>2021-12-19T10:13:45Z</time>
      </trkpt>
      <trkpt lat="42.96947" lon="0.07353">
        <ele>1746</ele>
        <time>2021-12-19T10:14:09Z</time>
      </trkpt>
      <trkpt lat="42.96959" lon="0.07333">
        <ele>1748.8</ele>
        <time>2021-12-19T10:14:33Z</time>
      </trkpt>
      <trkpt lat="42.96973" lon="0.07317">
        <ele>1750.91</ele>
        <time>2021-12-19T10:14:57Z</time>
      </trkpt>
      <trkpt lat="42.96984" lon="0.07296">
        <ele>1757</ele>
        <time>2021-12-19T10:15:22Z</time>
      </trkpt>
      <trkpt lat="42.96998" lon="0.07279">
        <ele>1757</ele>
        <time>2021-12-19T10:15:51Z</time>
      </trkpt>
      <trkpt lat="42.97014" lon="0.07267">
        <ele>1768</ele>
        <time>2021-12-19T10:16:20Z</time>
      </trkpt>
      <trkpt lat="42.97027" lon="0.07249">
        <ele>1772.55</ele>
        <time>2021-12-19T10:16:54Z</time>
      </trkpt>
      <trkpt lat="42.97039" lon="0.07228">
        <ele>1771</ele>
        <time>2021-12-19T10:17:23Z</time>
      </trkpt>
      <trkpt lat="42.97048" lon="0.07207">
        <ele>1778</ele>
        <time>2021-12-19T10:17:44Z</time>
      </trkpt>
      <trkpt lat="42.9706" lon="0.07186">
        <ele>1777</ele>
        <time>2021-12-19T10:18:03Z</time>
      </trkpt>
      <trkpt lat="42.97072" lon="0.07167">
        <ele>1777</ele>
        <time>2021-12-19T10:18:19Z</time>
      </trkpt>
      <trkpt lat="42.97088" lon="0.07152">
        <ele>1789</ele>
        <time>2021-12-19T10:18:39Z</time>
      </trkpt>
      <trkpt lat="42.97106" lon="0.07147">
        <ele>1789</ele>
        <time>2021-12-19T10:19:07Z</time>
      </trkpt>
      <trkpt lat="42.97124" lon="0.07145">
        <ele>1793</ele>
        <time>2021-12-19T10:19:27Z</time>
      </trkpt>
      <trkpt lat="42.97141" lon="0.07136">
        <ele>1793.24</ele>
        <time>2021-12-19T10:19:51Z</time>
      </trkpt>
      <trkpt lat="42.97156" lon="0.0712">
        <ele>1793</ele>
        <time>2021-12-19T10:20:13Z</time>
      </trkpt>
      <trkpt lat="42.97168" lon="0.07101">
        <ele>1796</ele>
        <time>2021-12-19T10:21:00Z</time>
      </trkpt>
      <trkpt lat="42.97181" lon="0.07083">
        <ele>1800.55</ele>
        <time>2021-12-19T10:21:20Z</time>
      </trkpt>
      <trkpt lat="42.9719" lon="0.07062">
        <ele>1801</ele>
        <time>2021-12-19T10:21:40Z</time>
      </trkpt>
      <trkpt lat="42.97199" lon="0.0704">
        <ele>1810</ele>
        <time>2021-12-19T10:22:15Z</time>
      </trkpt>
      <trkpt lat="42.97208" lon="0.07018">
        <ele>1816</ele>
        <time>2021-12-19T10:22:49Z</time>
      </trkpt>
      <trkpt lat="42.97226" lon="0.07019">
        <ele>1822.98</ele>
        <time>2021-12-19T10:23:15Z</time>
      </trkpt>
      <trkpt lat="42.97242" lon="0.07032">
        <ele>1820</ele>
        <time>2021-12-19T10:23:49Z</time>
      </trkpt>
      <trkpt lat="42.97256" lon="0.07048">
        <ele>1828</ele>
        <time>2021-12-19T10:24:20Z</time>
      </trkpt>
      <trkpt lat="42.97274" lon="0.07042">
        <ele>1828</ele>
        <time>2021-12-19T10:24:52Z</time>
      </trkpt>
      <trkpt lat="42.9729" lon="0.07031">
        <ele>1834</ele>
        <time>2021-12-19T10:25:47Z</time>
      </trkpt>
      <trkpt lat="42.97308" lon="0.07023">
        <ele>1843.84</ele>
        <time>2021-12-19T10:26:11Z</time>
      </trkpt>
      <trkpt lat="42.97326" lon="0.07023">
        <ele>1844</ele>
        <time>2021-12-19T10:26:36Z</time>
      </trkpt>
      <trkpt lat="42.97345" lon="0.07018">
        <ele>1854</ele>
        <time>2021-12-19T10:27:11Z</time>
      </trkpt>
      <trkpt lat="42.9736" lon="0.0703">
        <ele>1851</ele>
        <time>2021-12-19T10:28:01Z</time>
      </trkpt>
      <trkpt lat="42.97374" lon="0.07012">
        <ele>1866</ele>
        <time>2021-12-19T10:28:40Z</time>
      </trkpt>
      <trkpt lat="42.97388" lon="0.06996">
        <ele>1866</ele>
        <time>2021-12-19T10:29:19Z</time>
      </trkpt>
      <trkpt lat="42.97406" lon="0.06996">
        <ele>1879.99</ele>
        <time>2021-12-19T10:30:27Z</time>
      </trkpt>
      <trkpt lat="42.97415" lon="0.06974">
        <ele>1880</ele>
        <time>2021-12-19T10:30:59Z</time>
      </trkpt>
      <trkpt lat="42.97433" lon="0.06981">
        <ele>1898</ele>
        <time>2021-12-19T10:31:56Z</time>
      </trkpt>
      <trkpt lat="42.97446" lon="0.07">
        <ele>1907.92</ele>
        <time>2021-12-19T10:32:38Z</time>
      </trkpt>
      <trkpt lat="42.97459" lon="0.07017">
        <ele>1907</ele>
        <time>2021-12-19T10:33:22Z</time>
      </trkpt>
      <trkpt lat="42.97474" lon="0.07033">
        <ele>1917.68</ele>
        <time>2021-12-19T10:33:46Z</time>
      </trkpt>
      <trkpt lat="42.9749" lon="0.07044">
        <ele>1918</ele>
        <time>2021-12-19T10:34:18Z</time>
      </trkpt>
      <trkpt lat="42.97495" lon="0.0702">
        <ele>1921</ele>
        <time>2021-12-19T10:35:29Z</time>
      </trkpt>
      <trkpt lat="42.97508" lon="0.07002">
        <ele>1933</ele>
        <time>2021-12-19T10:36:22Z</time>
      </trkpt>
      <trkpt lat="42.97526" lon="0.07005">
        <ele>1933</ele>
        <time>2021-12-19T10:37:59Z</time>
      </trkpt>
      <trkpt lat="42.97541" lon="0.06991">
        <ele>1947</ele>
        <time>2021-12-19T10:38:29Z</time>
      </trkpt>
      <trkpt lat="42.97559" lon="0.06996">
        <ele>1961.99</ele>
        <time>2021-12-19T10:39:25Z</time>
      </trkpt>
      <trkpt lat="42.97577" lon="0.07002">
        <ele>1956</ele>
        <time>2021-12-19T10:40:06Z</time>
      </trkpt>
      <trkpt lat="42.97584" lon="0.06979">
        <ele>1976.99</ele>
        <time>2021-12-19T10:40:57Z</time>
      </trkpt>
      <trkpt lat="42.97587" lon="0.06955">
        <ele>1977</ele>
        <time>2021-12-19T10:41:41Z</time>
      </trkpt>
      <trkpt lat="42.97595" lon="0.06933">
        <ele>1973</ele>
        <time>2021-12-19T10:42:16Z</time>
      </trkpt>
      <trkpt lat="42.97614" lon="0.06931">
        <ele>1981.98</ele>
        <time>2021-12-19T10:42:59Z</time>
      </trkpt>
      <trkpt lat="42.97631" lon="0.06935">
        <ele>1982</ele>
        <time>2021-12-19T10:43:31Z</time>
      </trkpt>
      <trkpt lat="42.97649" lon="0.06928">
        <ele>1993</ele>
        <time>2021-12-19T10:44:03Z</time>
      </trkpt>
      <trkpt lat="42.97664" lon="0.06913">
        <ele>1992</ele>
        <time>2021-12-19T10:44:45Z</time>
      </trkpt>
      <trkpt lat="42.97676" lon="0.06894">
        <ele>2001</ele>
        <time>2021-12-19T10:45:26Z</time>
      </trkpt>
      <trkpt lat="42.97692" lon="0.06882">
        <ele>2013</ele>
        <time>2021-12-19T10:45:51Z</time>
      </trkpt>
      <trkpt lat="42.97708" lon="0.06871">
        <ele>2025</ele>
        <time>2021-12-19T10:46:32Z</time>
      </trkpt>
      <trkpt lat="42.97726" lon="0.06866">
        <ele>2024</ele>
        <time>2021-12-19T10:47:13Z</time>
      </trkpt>
      <trkpt lat="42.97744" lon="0.06863">
        <ele>2024</ele>
        <time>2021-12-19T10:47:54Z</time>
      </trkpt>
      <trkpt lat="42.97762" lon="0.06858">
        <ele>2037</ele>
        <time>2021-12-19T10:48:29Z</time>
      </trkpt>
      <trkpt lat="42.97772" lon="0.06837">
        <ele>2037</ele>
        <time>2021-12-19T10:49:29Z</time>
      </trkpt>
      <trkpt lat="42.97787" lon="0.0682">
        <ele>2051</ele>
        <time>2021-12-19T10:52:05Z</time>
      </trkpt>
      <trkpt lat="42.97796" lon="0.06798">
        <ele>2057</ele>
        <time>2021-12-19T10:52:33Z</time>
      </trkpt>
      <trkpt lat="42.97794" lon="0.06774">
        <ele>2066</ele>
        <time>2021-12-19T10:53:19Z</time>
      </trkpt>
      <trkpt lat="42.97798" lon="0.06749">
        <ele>2076.97</ele>
        <time>2021-12-19T10:54:38Z</time>
      </trkpt>
      <trkpt lat="42.97815" lon="0.06742">
        <ele>2082</ele>
        <time>2021-12-19T10:55:14Z</time>
      </trkpt>
      <trkpt lat="42.97804" lon="0.06722">
        <ele>2087.02</ele>
        <time>2021-12-19T10:55:54Z</time>
      </trkpt>
      <trkpt lat="42.97805" lon="0.06697">
        <ele>2088</ele>
        <time>2021-12-19T10:56:52Z</time>
      </trkpt>
      <trkpt lat="42.97821" lon="0.06685">
        <ele>2101</ele>
        <time>2021-12-19T10:57:27Z</time>
      </trkpt>
      <trkpt lat="42.97822" lon="0.0666">
        <ele>2114</ele>
        <time>2021-12-19T10:58:45Z</time>
      </trkpt>
      <trkpt lat="42.9784" lon="0.06659">
        <ele>2119</ele>
        <time>2021-12-19T10:59:40Z</time>
      </trkpt>
      <trkpt lat="42.97858" lon="0.06662">
        <ele>2119</ele>
        <time>2021-12-19T11:00:43Z</time>
      </trkpt>
      <trkpt lat="42.97876" lon="0.0667">
        <ele>2123</ele>
        <time>2021-12-19T11:01:27Z</time>
      </trkpt>
      <trkpt lat="42.97877" lon="0.06645">
        <ele>2128</ele>
        <time>2021-12-19T11:02:23Z</time>
      </trkpt>
      <trkpt lat="42.97895" lon="0.06652">
        <ele>2137</ele>
        <time>2021-12-19T11:03:20Z</time>
      </trkpt>
      <trkpt lat="42.97913" lon="0.06656">
        <ele>2137</ele>
        <time>2021-12-19T11:03:51Z</time>
      </trkpt>
      <trkpt lat="42.97925" lon="0.06674">
        <ele>2144</ele>
        <time>2021-12-19T11:04:33Z</time>
      </trkpt>
      <trkpt lat="42.97939" lon="0.0669">
        <ele>2144</ele>
        <time>2021-12-19T11:05:02Z</time>
      </trkpt>
      <trkpt lat="42.97955" lon="0.06703">
        <ele>2153</ele>
        <time>2021-12-19T11:05:33Z</time>
      </trkpt>
      <trkpt lat="42.97973" lon="0.06709">
        <ele>2164.9</ele>
        <time>2021-12-19T11:06:05Z</time>
      </trkpt>
      <trkpt lat="42.97979" lon="0.06732">
        <ele>2165</ele>
        <time>2021-12-19T11:06:59Z</time>
      </trkpt>
      <trkpt lat="42.9798" lon="0.06757">
        <ele>2166</ele>
        <time>2021-12-19T11:07:37Z</time>
      </trkpt>
      <trkpt lat="42.97983" lon="0.06783">
        <ele>2170</ele>
        <time>2021-12-19T11:08:25Z</time>
      </trkpt>
      <trkpt lat="42.97998" lon="0.06797">
        <ele>2170</ele>
        <time>2021-12-19T11:08:57Z</time>
      </trkpt>
      <trkpt lat="42.98017" lon="0.06797">
        <ele>2182</ele>
        <time>2021-12-19T11:09:28Z</time>
      </trkpt>
      <trkpt lat="42.98028" lon="0.06817">
        <ele>2203.29</ele>
        <time>2021-12-19T11:10:36Z</time>
      </trkpt>
      <trkpt lat="42.98046" lon="0.06813">
        <ele>2205</ele>
        <time>2021-12-19T11:11:51Z</time>
      </trkpt>
      <trkpt lat="42.98064" lon="0.06811">
        <ele>2225</ele>
        <time>2021-12-19T11:13:30Z</time>
      </trkpt>
      <trkpt lat="42.98072" lon="0.06789">
        <ele>2228</ele>
        <time>2021-12-19T11:15:30Z</time>
      </trkpt>
      <trkpt lat="42.98087" lon="0.06773">
        <ele>2243</ele>
        <time>2021-12-19T11:16:57Z</time>
      </trkpt>
      <trkpt lat="42.98104" lon="0.06764">
        <ele>2243</ele>
        <time>2021-12-19T11:18:16Z</time>
      </trkpt>
      <trkpt lat="42.98117" lon="0.06781">
        <ele>2266</ele>
        <time>2021-12-19T11:19:06Z</time>
      </trkpt>
      <trkpt lat="42.98135" lon="0.06774">
        <ele>2267</ele>
        <time>2021-12-19T11:20:52Z</time>
      </trkpt>
      <trkpt lat="42.98152" lon="0.06776">
        <ele>2287</ele>
        <time>2021-12-19T11:22:51Z</time>
      </trkpt>
      <trkpt lat="42.98152" lon="0.06751">
        <ele>2287</ele>
        <time>2021-12-19T11:23:43Z</time>
      </trkpt>
      <trkpt lat="42.98157" lon="0.06727">
        <ele>2280</ele>
        <time>2021-12-19T11:24:26Z</time>
      </trkpt>
      <trkpt lat="42.98175" lon="0.06733">
        <ele>2270</ele>
        <time>2021-12-19T11:25:55Z</time>
      </trkpt>
      <trkpt lat="42.9818" lon="0.06757">
        <ele>2290</ele>
        <time>2021-12-19T11:37:59Z</time>
      </trkpt>
      <trkpt lat="42.98198" lon="0.06763">
        <ele>2298</ele>
        <time>2021-12-19T11:39:06Z</time>
      </trkpt>
      <trkpt lat="42.98215" lon="0.06768">
        <ele>2298</ele>
        <time>2021-12-19T11:40:10Z</time>
      </trkpt>
      <trkpt lat="42.98234" lon="0.06773">
        <ele>2294</ele>
        <time>2021-12-19T11:41:49Z</time>
      </trkpt>
      <trkpt lat="42.98251" lon="0.0678">
        <ele>2298.04</ele>
        <time>2021-12-19T11:42:44Z</time>
      </trkpt>
      <trkpt lat="42.98265" lon="0.06797">
        <ele>2298</ele>
        <time>2021-12-19T11:45:03Z</time>
      </trkpt>
      <trkpt lat="42.98282" lon="0.06806">
        <ele>2295.45</ele>
        <time>2021-12-19T11:46:08Z</time>
      </trkpt>
      <trkpt lat="42.98313" lon="0.0684">
        <ele>2311.6</ele>
      </trkpt>
      <trkpt lat="42.98365" lon="0.06888">
        <ele>2307.9</ele>
        <time>2021-12-19T11:46:52Z</time>
      </trkpt>
      <trkpt lat="42.98316" lon="0.06845">
        <ele>2311.5</ele>
      </trkpt>
      <trkpt lat="42.98279" lon="0.0681">
        <ele>2301</ele>
        <time>2021-12-19T11:51:04Z</time>
      </trkpt>
      <trkpt lat="42.98264" lon="0.06796">
        <ele>2298</ele>
        <time>2021-12-19T11:51:44Z</time>
      </trkpt>
      <trkpt lat="42.9825" lon="0.06781">
        <ele>2308.5</ele>
        <time>2021-12-19T11:52:41Z</time>
      </trkpt>
      <trkpt lat="42.98232" lon="0.06775">
        <ele>2294</ele>
        <time>2021-12-19T11:53:42Z</time>
      </trkpt>
      <trkpt lat="42.98217" lon="0.06762">
        <ele>2298</ele>
        <time>2021-12-19T11:56:12Z</time>
      </trkpt>
      <trkpt lat="42.98199" lon="0.06759">
        <ele>2298</ele>
        <time>2021-12-19T11:57:29Z</time>
      </trkpt>
      <trkpt lat="42.98181" lon="0.06757">
        <ele>2290</ele>
        <time>2021-12-19T11:58:20Z</time>
      </trkpt>
      <trkpt lat="42.98163" lon="0.06767">
        <ele>2287.26</ele>
        <time>2021-12-19T12:11:18Z</time>
      </trkpt>
      <trkpt lat="42.98146" lon="0.06774">
        <ele>2287</ele>
        <time>2021-12-19T12:11:27Z</time>
      </trkpt>
      <trkpt lat="42.98127" lon="0.06764">
        <ele>2267</ele>
        <time>2021-12-19T12:11:38Z</time>
      </trkpt>
      <trkpt lat="42.98112" lon="0.06747">
        <ele>2270.5</ele>
        <time>2021-12-19T12:12:17Z</time>
      </trkpt>
      <trkpt lat="42.98098" lon="0.06726">
        <ele>2246.01</ele>
        <time>2021-12-19T12:12:25Z</time>
      </trkpt>
      <trkpt lat="42.98079" lon="0.06729">
        <ele>2224.75</ele>
        <time>2021-12-19T12:12:35Z</time>
      </trkpt>
      <trkpt lat="42.9807" lon="0.06707">
        <ele>2225.98</ele>
        <time>2021-12-19T12:13:13Z</time>
      </trkpt>
      <trkpt lat="42.98054" lon="0.06692">
        <ele>2219.14</ele>
        <time>2021-12-19T12:13:21Z</time>
      </trkpt>
      <trkpt lat="42.98038" lon="0.0668">
        <ele>2212.02</ele>
        <time>2021-12-19T12:13:26Z</time>
      </trkpt>
      <trkpt lat="42.98019" lon="0.06682">
        <ele>2195.02</ele>
        <time>2021-12-19T12:13:35Z</time>
      </trkpt>
      <trkpt lat="42.9801" lon="0.06658">
        <ele>2205.92</ele>
        <time>2021-12-19T12:13:39Z</time>
      </trkpt>
      <trkpt lat="42.9799" lon="0.06657">
        <ele>2191.04</ele>
        <time>2021-12-19T12:13:47Z</time>
      </trkpt>
      <trkpt lat="42.97972" lon="0.06671">
        <ele>2166.08</ele>
        <time>2021-12-19T12:14:24Z</time>
      </trkpt>
      <trkpt lat="42.97959" lon="0.0665">
        <ele>2170.11</ele>
        <time>2021-12-19T12:14:27Z</time>
      </trkpt>
      <trkpt lat="42.97947" lon="0.06631">
        <ele>2185.59</ele>
        <time>2021-12-19T12:14:31Z</time>
      </trkpt>
      <trkpt lat="42.97928" lon="0.06616">
        <ele>2164.05</ele>
        <time>2021-12-19T12:14:36Z</time>
      </trkpt>
      <trkpt lat="42.9791" lon="0.06608">
        <ele>2161.49</ele>
        <time>2021-12-19T12:14:40Z</time>
      </trkpt>
      <trkpt lat="42.97893" lon="0.06621">
        <ele>2147.11</ele>
        <time>2021-12-19T12:14:45Z</time>
      </trkpt>
      <trkpt lat="42.9788" lon="0.06642">
        <ele>2129.27</ele>
        <time>2021-12-19T12:14:49Z</time>
      </trkpt>
      <trkpt lat="42.97873" lon="0.0662">
        <ele>2140</ele>
        <time>2021-12-19T12:15:48Z</time>
      </trkpt>
      <trkpt lat="42.97853" lon="0.06625">
        <ele>2133.19</ele>
        <time>2021-12-19T12:17:54Z</time>
      </trkpt>
      <trkpt lat="42.97847" lon="0.06651">
        <ele>2119.38</ele>
        <time>2021-12-19T12:17:59Z</time>
      </trkpt>
      <trkpt lat="42.97829" lon="0.06644">
        <ele>2114.48</ele>
        <time>2021-12-19T12:18:42Z</time>
      </trkpt>
      <trkpt lat="42.97811" lon="0.06649">
        <ele>2114</ele>
        <time>2021-12-19T12:19:06Z</time>
      </trkpt>
      <trkpt lat="42.97804" lon="0.06671">
        <ele>2100.07</ele>
        <time>2021-12-19T12:19:16Z</time>
      </trkpt>
      <trkpt lat="42.97784" lon="0.06674">
        <ele>2098</ele>
        <time>2021-12-19T12:23:11Z</time>
      </trkpt>
      <trkpt lat="42.97771" lon="0.06697">
        <ele>2084.02</ele>
        <time>2021-12-19T12:23:18Z</time>
      </trkpt>
      <trkpt lat="42.97759" lon="0.06718">
        <ele>2081.21</ele>
        <time>2021-12-19T12:23:22Z</time>
      </trkpt>
      <trkpt lat="42.97742" lon="0.0673">
        <ele>2071.04</ele>
        <time>2021-12-19T12:23:27Z</time>
      </trkpt>
      <trkpt lat="42.97723" lon="0.06727">
        <ele>2073.08</ele>
        <time>2021-12-19T12:43:27Z</time>
      </trkpt>
      <trkpt lat="42.97708" lon="0.06741">
        <ele>2059</ele>
        <time>2021-12-19T12:43:38Z</time>
      </trkpt>
      <trkpt lat="42.97694" lon="0.06757">
        <ele>2041.64</ele>
        <time>2021-12-19T12:43:47Z</time>
      </trkpt>
      <trkpt lat="42.97674" lon="0.06767">
        <ele>2036</ele>
        <time>2021-12-19T12:44:54Z</time>
      </trkpt>
      <trkpt lat="42.97663" lon="0.06786">
        <ele>2014.17</ele>
        <time>2021-12-19T12:45:02Z</time>
      </trkpt>
      <trkpt lat="42.97655" lon="0.06811">
        <ele>2009.5</ele>
        <time>2021-12-19T12:45:10Z</time>
      </trkpt>
      <trkpt lat="42.97637" lon="0.0682">
        <ele>1997.5</ele>
        <time>2021-12-19T12:45:15Z</time>
      </trkpt>
      <trkpt lat="42.97617" lon="0.06811">
        <ele>1993.01</ele>
        <time>2021-12-19T12:45:20Z</time>
      </trkpt>
      <trkpt lat="42.97599" lon="0.068">
        <ele>1988.04</ele>
        <time>2021-12-19T12:45:25Z</time>
      </trkpt>
      <trkpt lat="42.97581" lon="0.0679">
        <ele>1984.5</ele>
        <time>2021-12-19T12:45:32Z</time>
      </trkpt>
      <trkpt lat="42.97558" lon="0.06784">
        <ele>1983</ele>
        <time>2021-12-19T12:45:37Z</time>
      </trkpt>
      <trkpt lat="42.9754" lon="0.06783">
        <ele>1981.02</ele>
        <time>2021-12-19T12:45:41Z</time>
      </trkpt>
      <trkpt lat="42.9752" lon="0.06787">
        <ele>1981.91</ele>
        <time>2021-12-19T12:45:45Z</time>
      </trkpt>
      <trkpt lat="42.975" lon="0.06788">
        <ele>1982</ele>
        <time>2021-12-19T12:45:50Z</time>
      </trkpt>
      <trkpt lat="42.97482" lon="0.06784">
        <ele>1974.02</ele>
        <time>2021-12-19T12:45:55Z</time>
      </trkpt>
      <trkpt lat="42.97463" lon="0.0678">
        <ele>1963.3</ele>
        <time>2021-12-19T12:46:00Z</time>
      </trkpt>
      <trkpt lat="42.97445" lon="0.06773">
        <ele>1984.82</ele>
        <time>2021-12-19T12:46:06Z</time>
      </trkpt>
      <trkpt lat="42.97429" lon="0.06762">
        <ele>1964</ele>
        <time>2021-12-19T12:46:57Z</time>
      </trkpt>
      <trkpt lat="42.97412" lon="0.0675">
        <ele>1946.71</ele>
        <time>2021-12-19T12:47:14Z</time>
      </trkpt>
      <trkpt lat="42.97398" lon="0.0677">
        <ele>1945.25</ele>
        <time>2021-12-19T12:47:19Z</time>
      </trkpt>
      <trkpt lat="42.9738" lon="0.0678">
        <ele>1924</ele>
        <time>2021-12-19T12:47:23Z</time>
      </trkpt>
      <trkpt lat="42.97361" lon="0.06777">
        <ele>1913.4</ele>
        <time>2021-12-19T12:47:27Z</time>
      </trkpt>
      <trkpt lat="42.97341" lon="0.06777">
        <ele>1909.74</ele>
        <time>2021-12-19T12:47:31Z</time>
      </trkpt>
      <trkpt lat="42.97321" lon="0.06771">
        <ele>1897.33</ele>
        <time>2021-12-19T12:47:35Z</time>
      </trkpt>
      <trkpt lat="42.97303" lon="0.06759">
        <ele>1885.17</ele>
        <time>2021-12-19T12:47:40Z</time>
      </trkpt>
      <trkpt lat="42.97282" lon="0.06767">
        <ele>1884</ele>
        <time>2021-12-19T12:47:45Z</time>
      </trkpt>
      <trkpt lat="42.97262" lon="0.06758">
        <ele>1873</ele>
        <time>2021-12-19T12:48:30Z</time>
      </trkpt>
      <trkpt lat="42.97243" lon="0.0674">
        <ele>1865.72</ele>
        <time>2021-12-19T12:48:34Z</time>
      </trkpt>
      <trkpt lat="42.97225" lon="0.06744">
        <ele>1865.01</ele>
        <time>2021-12-19T12:48:38Z</time>
      </trkpt>
      <trkpt lat="42.97204" lon="0.06743">
        <ele>1854.03</ele>
        <time>2021-12-19T12:48:43Z</time>
      </trkpt>
      <trkpt lat="42.97193" lon="0.0672">
        <ele>1840.28</ele>
        <time>2021-12-19T12:48:48Z</time>
      </trkpt>
      <trkpt lat="42.97196" lon="0.06692">
        <ele>1851.62</ele>
        <time>2021-12-19T12:48:54Z</time>
      </trkpt>
      <trkpt lat="42.97189" lon="0.06667">
        <ele>1836.43</ele>
        <time>2021-12-19T12:49:08Z</time>
      </trkpt>
      <trkpt lat="42.9717" lon="0.06666">
        <ele>1836</ele>
        <time>2021-12-19T12:49:12Z</time>
      </trkpt>
      <trkpt lat="42.9715" lon="0.06679">
        <ele>1824.14</ele>
        <time>2021-12-19T12:49:16Z</time>
      </trkpt>
      <trkpt lat="42.97131" lon="0.06683">
        <ele>1813.08</ele>
        <time>2021-12-19T12:49:20Z</time>
      </trkpt>
      <trkpt lat="42.97109" lon="0.06688">
        <ele>1802.91</ele>
        <time>2021-12-19T12:49:24Z</time>
      </trkpt>
      <trkpt lat="42.97092" lon="0.06678">
        <ele>1799</ele>
        <time>2021-12-19T12:50:59Z</time>
      </trkpt>
      <trkpt lat="42.9707" lon="0.06675">
        <ele>1788.09</ele>
        <time>2021-12-19T12:51:05Z</time>
      </trkpt>
      <trkpt lat="42.97052" lon="0.06664">
        <ele>1777.5</ele>
        <time>2021-12-19T12:51:09Z</time>
      </trkpt>
      <trkpt lat="42.97038" lon="0.06645">
        <ele>1773.12</ele>
        <time>2021-12-19T12:51:12Z</time>
      </trkpt>
      <trkpt lat="42.97028" lon="0.06623">
        <ele>1762.38</ele>
        <time>2021-12-19T12:51:15Z</time>
      </trkpt>
      <trkpt lat="42.97006" lon="0.06614">
        <ele>1759.03</ele>
        <time>2021-12-19T12:51:19Z</time>
      </trkpt>
      <trkpt lat="42.96984" lon="0.06619">
        <ele>1749</ele>
        <time>2021-12-19T12:52:04Z</time>
      </trkpt>
      <trkpt lat="42.96969" lon="0.06633">
        <ele>1740.6</ele>
        <time>2021-12-19T12:52:07Z</time>
      </trkpt>
      <trkpt lat="42.96951" lon="0.06634">
        <ele>1737.01</ele>
        <time>2021-12-19T12:52:12Z</time>
      </trkpt>
      <trkpt lat="42.96931" lon="0.06634">
        <ele>1726.03</ele>
        <time>2021-12-19T12:52:18Z</time>
      </trkpt>
      <trkpt lat="42.96921" lon="0.06611">
        <ele>1717.6</ele>
        <time>2021-12-19T12:52:27Z</time>
      </trkpt>
      <trkpt lat="42.96905" lon="0.06591">
        <ele>1696.15</ele>
        <time>2021-12-19T12:52:33Z</time>
      </trkpt>
      <trkpt lat="42.969" lon="0.06562">
        <ele>1687.07</ele>
        <time>2021-12-19T12:52:39Z</time>
      </trkpt>
      <trkpt lat="42.96886" lon="0.06541">
        <ele>1673.93</ele>
        <time>2021-12-19T12:52:46Z</time>
      </trkpt>
      <trkpt lat="42.96878" lon="0.06517">
        <ele>1671.95</ele>
        <time>2021-12-19T12:52:53Z</time>
      </trkpt>
      <trkpt lat="42.9687" lon="0.06489">
        <ele>1672</ele>
        <time>2021-12-19T12:52:58Z</time>
      </trkpt>
      <trkpt lat="42.96866" lon="0.06462">
        <ele>1672</ele>
        <time>2021-12-19T12:53:01Z</time>
      </trkpt>
      <trkpt lat="42.96854" lon="0.06442">
        <ele>1670.32</ele>
        <time>2021-12-19T12:53:04Z</time>
      </trkpt>
      <trkpt lat="42.96834" lon="0.06429">
        <ele>1671.99</ele>
        <time>2021-12-19T12:53:08Z</time>
      </trkpt>
      <trkpt lat="42.96816" lon="0.06424">
        <ele>1666.05</ele>
        <time>2021-12-19T12:53:12Z</time>
      </trkpt>
      <trkpt lat="42.96799" lon="0.06415">
        <ele>1667.41</ele>
        <time>2021-12-19T12:53:19Z</time>
      </trkpt>
      <trkpt lat="42.96781" lon="0.06431">
        <ele>1661.02</ele>
        <time>2021-12-19T12:54:16Z</time>
      </trkpt>
      <trkpt lat="42.96766" lon="0.06455">
        <ele>1647.82</ele>
        <time>2021-12-19T12:54:20Z</time>
      </trkpt>
      <trkpt lat="42.96746" lon="0.06468">
        <ele>1642.46</ele>
        <time>2021-12-19T12:54:24Z</time>
      </trkpt>
      <trkpt lat="42.96726" lon="0.06475">
        <ele>1637.69</ele>
        <time>2021-12-19T12:54:29Z</time>
      </trkpt>
      <trkpt lat="42.96705" lon="0.06469">
        <ele>1634.33</ele>
        <time>2021-12-19T12:54:34Z</time>
      </trkpt>
      <trkpt lat="42.96687" lon="0.06461">
        <ele>1625.03</ele>
        <time>2021-12-19T12:54:37Z</time>
      </trkpt>
      <trkpt lat="42.96669" lon="0.06445">
        <ele>1624.01</ele>
        <time>2021-12-19T12:54:41Z</time>
      </trkpt>
      <trkpt lat="42.96653" lon="0.06434">
        <ele>1621.61</ele>
        <time>2021-12-19T12:54:44Z</time>
      </trkpt>
      <trkpt lat="42.96634" lon="0.06441">
        <ele>1612.2</ele>
        <time>2021-12-19T12:54:49Z</time>
      </trkpt>
      <trkpt lat="42.96612" lon="0.06439">
        <ele>1608.03</ele>
        <time>2021-12-19T12:54:53Z</time>
      </trkpt>
      <trkpt lat="42.96592" lon="0.0644">
        <ele>1595.11</ele>
        <time>2021-12-19T12:54:57Z</time>
      </trkpt>
      <trkpt lat="42.96577" lon="0.06458">
        <ele>1585</ele>
        <time>2021-12-19T12:55:57Z</time>
      </trkpt>
      <trkpt lat="42.9658" lon="0.06484">
        <ele>1586</ele>
        <time>2021-12-19T12:56:17Z</time>
      </trkpt>
      <trkpt lat="42.96579" lon="0.06511">
        <ele>1586</ele>
        <time>2021-12-19T12:56:32Z</time>
      </trkpt>
      <trkpt lat="42.96578" lon="0.06536">
        <ele>1586</ele>
        <time>2021-12-19T12:57:51Z</time>
      </trkpt>
      <trkpt lat="42.96583" lon="0.06512">
        <ele>1586</ele>
        <time>2021-12-19T13:26:27Z</time>
      </trkpt>
      <trkpt lat="42.96584" lon="0.06487">
        <ele>1595</ele>
        <time>2021-12-19T13:26:36Z</time>
      </trkpt>
      <trkpt lat="42.96578" lon="0.0646">
        <ele>1585</ele>
        <time>2021-12-19T13:26:47Z</time>
      </trkpt>
      <trkpt lat="42.96574" lon="0.06434">
        <ele>1585</ele>
        <time>2021-12-19T13:26:53Z</time>
      </trkpt>
      <trkpt lat="42.96569" lon="0.06405">
        <ele>1585.97</ele>
        <time>2021-12-19T13:27:00Z</time>
      </trkpt>
      <trkpt lat="42.96562" lon="0.06378">
        <ele>1587.82</ele>
        <time>2021-12-19T13:27:04Z</time>
      </trkpt>
      <trkpt lat="42.96554" lon="0.06356">
        <ele>1584.5</ele>
        <time>2021-12-19T13:27:07Z</time>
      </trkpt>
      <trkpt lat="42.9654" lon="0.06339">
        <ele>1583.01</ele>
        <time>2021-12-19T13:27:11Z</time>
      </trkpt>
      <trkpt lat="42.96522" lon="0.06347">
        <ele>1573.04</ele>
        <time>2021-12-19T13:27:40Z</time>
      </trkpt>
      <trkpt lat="42.965" lon="0.06362">
        <ele>1558.16</ele>
        <time>2021-12-19T13:27:45Z</time>
      </trkpt>
      <trkpt lat="42.96482" lon="0.06376">
        <ele>1553</ele>
        <time>2021-12-19T13:27:51Z</time>
      </trkpt>
      <trkpt lat="42.96459" lon="0.06369">
        <ele>1539.38</ele>
        <time>2021-12-19T13:27:56Z</time>
      </trkpt>
      <trkpt lat="42.96442" lon="0.06361">
        <ele>1529.21</ele>
        <time>2021-12-19T13:27:59Z</time>
      </trkpt>
      <trkpt lat="42.96423" lon="0.06361">
        <ele>1525.11</ele>
        <time>2021-12-19T13:28:02Z</time>
      </trkpt>
      <trkpt lat="42.96403" lon="0.06357">
        <ele>1517.72</ele>
        <time>2021-12-19T13:28:05Z</time>
      </trkpt>
      <trkpt lat="42.96388" lon="0.06343">
        <ele>1510.63</ele>
        <time>2021-12-19T13:28:54Z</time>
      </trkpt>
      <trkpt lat="42.96375" lon="0.06324">
        <ele>1512</ele>
        <time>2021-12-19T13:29:03Z</time>
      </trkpt>
      <trkpt lat="42.96356" lon="0.06317">
        <ele>1500.32</ele>
        <time>2021-12-19T13:29:10Z</time>
      </trkpt>
      <trkpt lat="42.96346" lon="0.06295">
        <ele>1502.92</ele>
        <time>2021-12-19T13:29:15Z</time>
      </trkpt>
      <trkpt lat="42.96338" lon="0.06268">
        <ele>1505.73</ele>
        <time>2021-12-19T13:29:19Z</time>
      </trkpt>
      <trkpt lat="42.96331" lon="0.06243">
        <ele>1496.9</ele>
        <time>2021-12-19T13:29:23Z</time>
      </trkpt>
      <trkpt lat="42.96325" lon="0.06219">
        <ele>1496.02</ele>
        <time>2021-12-19T13:29:26Z</time>
      </trkpt>
      <trkpt lat="42.96309" lon="0.06202">
        <ele>1496</ele>
        <time>2021-12-19T13:29:28Z</time>
      </trkpt>
      <trkpt lat="42.96292" lon="0.06195">
        <ele>1486.27</ele>
        <time>2021-12-19T13:29:31Z</time>
      </trkpt>
      <trkpt lat="42.96282" lon="0.06173">
        <ele>1489</ele>
        <time>2021-12-19T13:29:49Z</time>
      </trkpt>
      <trkpt lat="42.96268" lon="0.06149">
        <ele>1478.3</ele>
        <time>2021-12-19T13:29:53Z</time>
      </trkpt>
      <trkpt lat="42.96256" lon="0.06129">
        <ele>1477</ele>
        <time>2021-12-19T13:30:55Z</time>
      </trkpt>
      <trkpt lat="42.96242" lon="0.06108">
        <ele>1467.41</ele>
        <time>2021-12-19T13:30:59Z</time>
      </trkpt>
      <trkpt lat="42.96224" lon="0.06079">
        <ele>1465.3</ele>
        <time>2021-12-19T13:31:04Z</time>
      </trkpt>
      <trkpt lat="42.96215" lon="0.06058">
        <ele>1455</ele>
        <time>2021-12-19T13:31:07Z</time>
      </trkpt>
      <trkpt lat="42.96208" lon="0.06032">
        <ele>1455</ele>
        <time>2021-12-19T13:31:10Z</time>
      </trkpt>
      <trkpt lat="42.96198" lon="0.06003">
        <ele>1457.92</ele>
        <time>2021-12-19T13:31:13Z</time>
      </trkpt>
      <trkpt lat="42.96185" lon="0.05975">
        <ele>1449.24</ele>
        <time>2021-12-19T13:31:16Z</time>
      </trkpt>
      <trkpt lat="42.9617" lon="0.05956">
        <ele>1454.84</ele>
        <time>2021-12-19T13:31:19Z</time>
      </trkpt>
      <trkpt lat="42.96159" lon="0.05933">
        <ele>1448.72</ele>
        <time>2021-12-19T13:31:22Z</time>
      </trkpt>
      <trkpt lat="42.96149" lon="0.05908">
        <ele>1454.46</ele>
        <time>2021-12-19T13:31:27Z</time>
      </trkpt>
      <trkpt lat="42.96135" lon="0.05891">
        <ele>1440.41</ele>
        <time>2021-12-19T13:31:52Z</time>
      </trkpt>
      <trkpt lat="42.96116" lon="0.05897">
        <ele>1440</ele>
        <time>2021-12-19T13:31:59Z</time>
      </trkpt>
      <trkpt lat="42.96098" lon="0.05895">
        <ele>1422.33</ele>
        <time>2021-12-19T13:32:04Z</time>
      </trkpt>
      <trkpt lat="42.96082" lon="0.05881">
        <ele>1410.92</ele>
        <time>2021-12-19T13:32:08Z</time>
      </trkpt>
      <trkpt lat="42.96063" lon="0.05886">
        <ele>1405</ele>
        <time>2021-12-19T13:32:28Z</time>
      </trkpt>
      <trkpt lat="42.9605" lon="0.05868">
        <ele>1391.03</ele>
        <time>2021-12-19T13:32:46Z</time>
      </trkpt>
      <trkpt lat="42.96041" lon="0.05846">
        <ele>1390</ele>
        <time>2021-12-19T13:32:53Z</time>
      </trkpt>
      <trkpt lat="42.96034" lon="0.05821">
        <ele>1391</ele>
        <time>2021-12-19T13:33:45Z</time>
      </trkpt>
      <trkpt lat="42.96023" lon="0.058">
        <ele>1376</ele>
        <time>2021-12-19T13:34:04Z</time>
      </trkpt>
      <trkpt lat="42.96009" lon="0.05781">
        <ele>1376</ele>
        <time>2021-12-19T13:34:13Z</time>
      </trkpt>
      <trkpt lat="42.96005" lon="0.05756">
        <ele>1374</ele>
        <time>2021-12-19T13:34:19Z</time>
      </trkpt>
      <trkpt lat="42.95987" lon="0.05762">
        <ele>1359</ele>
        <time>2021-12-19T13:34:55Z</time>
      </trkpt>
      <trkpt lat="42.95975" lon="0.05781">
        <ele>1360.82</ele>
        <time>2021-12-19T13:35:06Z</time>
      </trkpt>
      <trkpt lat="42.95958" lon="0.05767">
        <ele>1343</ele>
        <time>2021-12-19T13:35:15Z</time>
      </trkpt>
      <trkpt lat="42.95942" lon="0.05779">
        <ele>1326.83</ele>
        <time>2021-12-19T13:35:26Z</time>
      </trkpt>
      <trkpt lat="42.95926" lon="0.05767">
        <ele>1326</ele>
        <time>2021-12-19T13:36:39Z</time>
      </trkpt>
      <trkpt lat="42.95917" lon="0.0579">
        <ele>1325</ele>
        <time>2021-12-19T13:38:29Z</time>
      </trkpt>
      <trkpt lat="42.95902" lon="0.05807">
        <ele>1317.3</ele>
        <time>2021-12-19T13:38:40Z</time>
      </trkpt>
      <trkpt lat="42.95899" lon="0.05834">
        <ele>1316.3</ele>
        <time>2021-12-19T13:38:53Z</time>
      </trkpt>
      <trkpt lat="42.95903" lon="0.05861">
        <ele>1316</ele>
        <time>2021-12-19T13:38:59Z</time>
      </trkpt>
      <trkpt lat="42.95907" lon="0.0589">
        <ele>1313.6</ele>
        <time>2021-12-19T13:39:04Z</time>
      </trkpt>
      <trkpt lat="42.95911" lon="0.05914">
        <ele>1313</ele>
        <time>2021-12-19T13:39:35Z</time>
      </trkpt>
      <trkpt lat="42.9591" lon="0.05939">
        <ele>1312</ele>
        <time>2021-12-19T13:41:20Z</time>
      </trkpt>
      <trkpt lat="42.95918" lon="0.05962">
        <ele>1311</ele>
        <time>2021-12-19T13:41:47Z</time>
      </trkpt>
      <trkpt lat="42.95925" lon="0.05985">
        <ele>1309</ele>
        <time>2021-12-19T13:42:32Z</time>
      </trkpt>
      <trkpt lat="42.95926" lon="0.0601">
        <ele>1308</ele>
        <time>2021-12-19T13:43:03Z</time>
      </trkpt>
      <trkpt lat="42.95932" lon="0.06035">
        <ele>1307</ele>
        <time>2021-12-19T13:44:41Z</time>
      </trkpt>
      <trkpt lat="42.95929" lon="0.06064">
        <ele>1306.09</ele>
        <time>2021-12-19T13:45:03Z</time>
      </trkpt>
      <trkpt lat="42.95925" lon="0.06092">
        <ele>1304.18</ele>
        <time>2021-12-19T13:45:08Z</time>
      </trkpt>
      <trkpt lat="42.95924" lon="0.06117">
        <ele>1302.6</ele>
        <time>2021-12-19T13:45:13Z</time>
      </trkpt>
      <trkpt lat="42.95922" lon="0.06145">
        <ele>1301.09</ele>
        <time>2021-12-19T13:45:17Z</time>
      </trkpt>
      <trkpt lat="42.95922" lon="0.06173">
        <ele>1300.09</ele>
        <time>2021-12-19T13:45:24Z</time>
      </trkpt>
      <trkpt lat="42.95927" lon="0.06203">
        <ele>1298.18</ele>
        <time>2021-12-19T13:45:31Z</time>
      </trkpt>
      <trkpt lat="42.95943" lon="0.06225">
        <ele>1296.6</ele>
        <time>2021-12-19T13:45:35Z</time>
      </trkpt>
      <trkpt lat="42.9595" lon="0.06252">
        <ele>1300.83</ele>
        <time>2021-12-19T13:45:39Z</time>
      </trkpt>
      <trkpt lat="42.95964" lon="0.0627">
        <ele>1299</ele>
        <time>2021-12-19T13:45:46Z</time>
      </trkpt>
      <trkpt lat="42.95974" lon="0.06292">
        <ele>1305.56</ele>
        <time>2021-12-19T13:46:29Z</time>
      </trkpt>
      <trkpt lat="42.95984" lon="0.06319">
        <ele>1299.22</ele>
        <time>2021-12-19T13:47:06Z</time>
      </trkpt>
      <trkpt lat="42.95992" lon="0.06344">
        <ele>1291.72</ele>
        <time>2021-12-19T13:47:10Z</time>
      </trkpt>
      <trkpt lat="42.95998" lon="0.06373">
        <ele>1285.16</ele>
        <time>2021-12-19T13:47:15Z</time>
      </trkpt>
      <trkpt lat="42.96006" lon="0.064">
        <ele>1294.25</ele>
        <time>2021-12-19T13:47:21Z</time>
      </trkpt>
      <trkpt lat="42.96014" lon="0.06425">
        <ele>1284.9</ele>
        <time>2021-12-19T13:47:27Z</time>
      </trkpt>
      <trkpt lat="42.96023" lon="0.06451">
        <ele>1277.63</ele>
        <time>2021-12-19T13:47:33Z</time>
      </trkpt>
      <trkpt lat="42.96026" lon="0.06477">
        <ele>1273.51</ele>
        <time>2021-12-19T13:47:37Z</time>
      </trkpt>
      <trkpt lat="42.96027" lon="0.06505">
        <ele>1269.27</ele>
        <time>2021-12-19T13:47:43Z</time>
      </trkpt>
      <trkpt lat="42.96031" lon="0.06532">
        <ele>1273.84</ele>
        <time>2021-12-19T13:47:49Z</time>
      </trkpt>
      <trkpt lat="42.96037" lon="0.06557">
        <ele>1270.2</ele>
        <time>2021-12-19T13:47:54Z</time>
      </trkpt>
      <trkpt lat="42.96041" lon="0.06582">
        <ele>1269.01</ele>
        <time>2021-12-19T13:47:58Z</time>
      </trkpt>
      <trkpt lat="42.96051" lon="0.06608">
        <ele>1264.04</ele>
        <time>2021-12-19T13:48:02Z</time>
      </trkpt>
      <trkpt lat="42.96062" lon="0.06635">
        <ele>1269.76</ele>
        <time>2021-12-19T13:48:06Z</time>
      </trkpt>
      <trkpt lat="42.96066" lon="0.06662">
        <ele>1265.04</ele>
        <time>2021-12-19T13:48:10Z</time>
      </trkpt>
      <trkpt lat="42.96065" lon="0.06689">
        <ele>1261.03</ele>
        <time>2021-12-19T13:48:14Z</time>
      </trkpt>
      <trkpt lat="42.96065" lon="0.0672">
        <ele>1257.01</ele>
        <time>2021-12-19T13:48:19Z</time>
      </trkpt>
      <trkpt lat="42.96067" lon="0.06746">
        <ele>1255.05</ele>
        <time>2021-12-19T13:48:22Z</time>
      </trkpt>
      <trkpt lat="42.96066" lon="0.06773">
        <ele>1253.02</ele>
        <time>2021-12-19T13:48:26Z</time>
      </trkpt>
      <trkpt lat="42.9606" lon="0.06806">
        <ele>1251.31</ele>
        <time>2021-12-19T13:48:30Z</time>
      </trkpt>
      <trkpt lat="42.96054" lon="0.0683">
        <ele>1248.21</ele>
        <time>2021-12-19T13:48:33Z</time>
      </trkpt>
      <trkpt lat="42.96046" lon="0.06853">
        <ele>1246.06</ele>
        <time>2021-12-19T13:48:36Z</time>
      </trkpt>
      <trkpt lat="42.96042" lon="0.06882">
        <ele>1245.03</ele>
        <time>2021-12-19T13:48:40Z</time>
      </trkpt>
      <trkpt lat="42.96043" lon="0.06907">
        <ele>1243.02</ele>
        <time>2021-12-19T13:48:45Z</time>
      </trkpt>
      <trkpt lat="42.96044" lon="0.06932">
        <ele>1242</ele>
        <time>2021-12-19T13:48:52Z</time>
      </trkpt>
      <trkpt lat="42.96049" lon="0.06959">
        <ele>1241.01</ele>
        <time>2021-12-19T13:48:58Z</time>
      </trkpt>
      <trkpt lat="42.96058" lon="0.06985">
        <ele>1244.51</ele>
        <time>2021-12-19T13:49:04Z</time>
      </trkpt>
      <trkpt lat="42.96067" lon="0.07009">
        <ele>1242.08</ele>
        <time>2021-12-19T13:49:10Z</time>
      </trkpt>
      <trkpt lat="42.96075" lon="0.07032">
        <ele>1239.2</ele>
        <time>2021-12-19T13:49:14Z</time>
      </trkpt>
      <trkpt lat="42.96084" lon="0.07062">
        <ele>1239.41</ele>
        <time>2021-12-19T13:49:18Z</time>
      </trkpt>
      <trkpt lat="42.9609" lon="0.07085">
        <ele>1237.88</ele>
        <time>2021-12-19T13:49:21Z</time>
      </trkpt>
      <trkpt lat="42.96094" lon="0.07111">
        <ele>1237.02</ele>
        <time>2021-12-19T13:49:24Z</time>
      </trkpt>
      <trkpt lat="42.961" lon="0.0714">
        <ele>1233.65</ele>
        <time>2021-12-19T13:49:27Z</time>
      </trkpt>
      <trkpt lat="42.96099" lon="0.07167">
        <ele>1232.32</ele>
        <time>2021-12-19T13:49:30Z</time>
      </trkpt>
      <trkpt lat="42.96097" lon="0.07194">
        <ele>1232</ele>
        <time>2021-12-19T13:49:35Z</time>
      </trkpt>
      <trkpt lat="42.9609" lon="0.07218">
        <ele>1232</ele>
        <time>2021-12-19T13:49:43Z</time>
      </trkpt>
      <trkpt lat="42.96087" lon="0.07243">
        <ele>1233</ele>
        <time>2021-12-19T13:49:57Z</time>
      </trkpt>
      <trkpt lat="42.96092" lon="0.07267">
        <ele>1235</ele>
        <time>2021-12-19T13:50:08Z</time>
      </trkpt>
      <trkpt lat="42.96092" lon="0.07293">
        <ele>1235</ele>
        <time>2021-12-19T13:50:15Z</time>
      </trkpt>
      <trkpt lat="42.96097" lon="0.07317">
        <ele>1232.27</ele>
        <time>2021-12-19T13:50:21Z</time>
      </trkpt>
      <trkpt lat="42.96099" lon="0.07348">
        <ele>1228.11</ele>
        <time>2021-12-19T13:50:26Z</time>
      </trkpt>
      <trkpt lat="42.961" lon="0.07373">
        <ele>1223.14</ele>
        <time>2021-12-19T13:50:32Z</time>
      </trkpt>
      <trkpt lat="42.96093" lon="0.07397">
        <ele>1220.08</ele>
        <time>2021-12-19T13:50:38Z</time>
      </trkpt>
      <trkpt lat="42.9609" lon="0.07432">
        <ele>1217.27</ele>
        <time>2021-12-19T13:50:46Z</time>
      </trkpt>
      <trkpt lat="42.96095" lon="0.07458">
        <ele>1214.27</ele>
        <time>2021-12-19T13:50:50Z</time>
      </trkpt>
      <trkpt lat="42.96092" lon="0.07486">
        <ele>1211.08</ele>
        <time>2021-12-19T13:50:55Z</time>
      </trkpt>
      <trkpt lat="42.96089" lon="0.0751">
        <ele>1209</ele>
        <time>2021-12-19T13:51:02Z</time>
      </trkpt>
      <trkpt lat="42.96078" lon="0.0753">
        <ele>1196</ele>
        <time>2021-12-19T13:51:33Z</time>
      </trkpt>
      <trkpt lat="42.96065" lon="0.07547">
        <ele>1196</ele>
        <time>2021-12-19T13:52:19Z</time>
      </trkpt>
      <trkpt lat="42.96054" lon="0.07568">
        <ele>1195.98</ele>
        <time>2021-12-19T13:53:24Z</time>
      </trkpt>
      <trkpt lat="42.96055" lon="0.07596">
        <ele>1194.05</ele>
        <time>2021-12-19T13:53:33Z</time>
      </trkpt>
      <trkpt lat="42.96062" lon="0.07624">
        <ele>1188.29</ele>
        <time>2021-12-19T13:53:37Z</time>
      </trkpt>
      <trkpt lat="42.96063" lon="0.0765">
        <ele>1186.19</ele>
        <time>2021-12-19T13:53:40Z</time>
      </trkpt>
      <trkpt lat="42.96064" lon="0.07684">
        <ele>1183.08</ele>
        <time>2021-12-19T13:53:44Z</time>
      </trkpt>
      <trkpt lat="42.96063" lon="0.07712">
        <ele>1181.05</ele>
        <time>2021-12-19T13:53:48Z</time>
      </trkpt>
      <trkpt lat="42.96066" lon="0.07739">
        <ele>1180.03</ele>
        <time>2021-12-19T13:53:52Z</time>
      </trkpt>
      <trkpt lat="42.96069" lon="0.07765">
        <ele>1178.02</ele>
        <time>2021-12-19T13:53:58Z</time>
      </trkpt>
      <trkpt lat="42.96075" lon="0.07792">
        <ele>1176.05</ele>
        <time>2021-12-19T13:54:03Z</time>
      </trkpt>
      <trkpt lat="42.96082" lon="0.07817">
        <ele>1174.05</ele>
        <time>2021-12-19T13:54:08Z</time>
      </trkpt>
      <trkpt lat="42.96085" lon="0.07843">
        <ele>1168.01</ele>
        <time>2021-12-19T13:54:19Z</time>
      </trkpt>
      <trkpt lat="42.96076" lon="0.07867">
        <ele>1171.05</ele>
        <time>2021-12-19T13:54:24Z</time>
      </trkpt>
      <trkpt lat="42.96067" lon="0.07895">
        <ele>1168.9</ele>
        <time>2021-12-19T13:54:30Z</time>
      </trkpt>
      <trkpt lat="42.96074" lon="0.07921">
        <ele>1166.18</ele>
        <time>2021-12-19T13:54:39Z</time>
      </trkpt>
      <trkpt lat="42.96082" lon="0.07948">
        <ele>1163.9</ele>
        <time>2021-12-19T13:54:45Z</time>
      </trkpt>
      <trkpt lat="42.96086" lon="0.07973">
        <ele>1152.71</ele>
        <time>2021-12-19T13:54:53Z</time>
      </trkpt>
      <trkpt lat="42.96073" lon="0.07991">
        <ele>1159</ele>
        <time>2021-12-19T13:55:15Z</time>
      </trkpt>
      <trkpt lat="42.96073" lon="0.08017">
        <ele>1156.01</ele>
        <time>2021-12-19T13:55:22Z</time>
      </trkpt>
      <trkpt lat="42.96081" lon="0.08041">
        <ele>1154.05</ele>
        <time>2021-12-19T13:55:27Z</time>
      </trkpt>
      <trkpt lat="42.96093" lon="0.08064">
        <ele>1143.29</ele>
        <time>2021-12-19T13:55:33Z</time>
      </trkpt>
      <trkpt lat="42.96098" lon="0.08088">
        <ele>1141.6</ele>
        <time>2021-12-19T13:55:37Z</time>
      </trkpt>
      <trkpt lat="42.96094" lon="0.08115">
        <ele>1138.9</ele>
        <time>2021-12-19T13:55:46Z</time>
      </trkpt>
      <trkpt lat="42.96087" lon="0.08141">
        <ele>1135.9</ele>
        <time>2021-12-19T13:55:53Z</time>
      </trkpt>
      <trkpt lat="42.96082" lon="0.08166">
        <ele>1135</ele>
        <time>2021-12-19T13:56:00Z</time>
      </trkpt>
      <trkpt lat="42.96079" lon="0.08191">
        <ele>1130</ele>
        <time>2021-12-19T13:56:08Z</time>
      </trkpt>
      <trkpt lat="42.96087" lon="0.08214">
        <ele>1131</ele>
        <time>2021-12-19T13:56:36Z</time>
      </trkpt>
      <trkpt lat="42.96086" lon="0.08239">
        <ele>1130</ele>
        <time>2021-12-19T13:57:31Z</time>
      </trkpt>
      <trkpt lat="42.96085" lon="0.08264">
        <ele>1127.99</ele>
        <time>2021-12-19T13:58:57Z</time>
      </trkpt>
      <trkpt lat="42.96091" lon="0.08289">
        <ele>1125</ele>
        <time>2021-12-19T13:59:20Z</time>
      </trkpt>
      <trkpt lat="42.96083" lon="0.08312">
        <ele>1117.9</ele>
        <time>2021-12-19T13:59:40Z</time>
      </trkpt>
      <trkpt lat="42.96074" lon="0.08334">
        <ele>1115.6</ele>
        <time>2021-12-19T14:00:04Z</time>
      </trkpt>
      <trkpt lat="42.96072" lon="0.08359">
        <ele>1115</ele>
        <time>2021-12-19T14:01:48Z</time>
      </trkpt>
      <trkpt lat="42.96076" lon="0.08383">
        <ele>1114</ele>
        <time>2021-12-19T14:01:53Z</time>
      </trkpt>
      <trkpt lat="42.96084" lon="0.08409">
        <ele>1110.2</ele>
        <time>2021-12-19T14:02:01Z</time>
      </trkpt>
      <trkpt lat="42.96082" lon="0.08437">
        <ele>1109.59</ele>
        <time>2021-12-19T14:02:06Z</time>
      </trkpt>
      <trkpt lat="42.96083" lon="0.08464">
        <ele>1106</ele>
        <time>2021-12-19T14:02:14Z</time>
      </trkpt>
      <trkpt lat="42.96089" lon="0.08492">
        <ele>1099.03</ele>
        <time>2021-12-19T14:02:20Z</time>
      </trkpt>
      <trkpt lat="42.96087" lon="0.08518">
        <ele>1098</ele>
        <time>2021-12-19T14:02:31Z</time>
      </trkpt>
      <trkpt lat="42.96089" lon="0.08545">
        <ele>1096</ele>
        <time>2021-12-19T14:02:57Z</time>
      </trkpt>
      <trkpt lat="42.96086" lon="0.0857">
        <ele>1095</ele>
        <time>2021-12-19T14:03:04Z</time>
      </trkpt>
      <trkpt lat="42.96093" lon="0.08595">
        <ele>1093</ele>
        <time>2021-12-19T14:03:16Z</time>
      </trkpt>
      <trkpt lat="42.96099" lon="0.08621">
        <ele>1092.01</ele>
        <time>2021-12-19T14:03:23Z</time>
      </trkpt>
      <trkpt lat="42.961" lon="0.08647">
        <ele>1094</ele>
        <time>2021-12-19T14:03:32Z</time>
      </trkpt>
      <trkpt lat="42.96103" lon="0.08671">
        <ele>1093.03</ele>
        <time>2021-12-19T14:03:48Z</time>
      </trkpt>
      <trkpt lat="42.96109" lon="0.08694">
        <ele>1093</ele>
        <time>2021-12-19T14:03:58Z</time>
      </trkpt>
      <trkpt lat="42.96114" lon="0.0872">
        <ele>1097.94</ele>
        <time>2021-12-19T14:04:15Z</time>
      </trkpt>
      <trkpt lat="42.96122" lon="0.08745">
        <ele>1095</ele>
        <time>2021-12-19T14:04:21Z</time>
      </trkpt>
      <trkpt lat="42.96134" lon="0.08766">
        <ele>1091.03</ele>
        <time>2021-12-19T14:04:26Z</time>
      </trkpt>
      <trkpt lat="42.96147" lon="0.08782">
        <ele>1089.31</ele>
        <time>2021-12-19T14:04:30Z</time>
      </trkpt>
      <trkpt lat="42.96165" lon="0.08793">
        <ele>1089</ele>
        <time>2021-12-19T14:04:37Z</time>
      </trkpt>
      <trkpt lat="42.96178" lon="0.08812">
        <ele>1085.45</ele>
        <time>2021-12-19T14:04:42Z</time>
      </trkpt>
      <trkpt lat="42.96176" lon="0.08837">
        <ele>1081.36</ele>
        <time>2021-12-19T14:05:04Z</time>
      </trkpt>
      <trkpt lat="42.96193" lon="0.08847">
        <ele>1081</ele>
        <time>2021-12-19T14:05:14Z</time>
      </trkpt>
      <trkpt lat="42.96209" lon="0.08864">
        <ele>1081.5</ele>
        <time>2021-12-19T14:05:20Z</time>
      </trkpt>
      <trkpt lat="42.96219" lon="0.08886">
        <ele>1080</ele>
        <time>2021-12-19T14:05:25Z</time>
      </trkpt>
      <trkpt lat="42.96232" lon="0.08904">
        <ele>1081</ele>
        <time>2021-12-19T14:05:32Z</time>
      </trkpt>
      <trkpt lat="42.96234" lon="0.08928">
        <ele>1078.08</ele>
        <time>2021-12-19T14:05:38Z</time>
      </trkpt>
      <trkpt lat="42.96236" lon="0.08953">
        <ele>1077.01</ele>
        <time>2021-12-19T14:05:49Z</time>
      </trkpt>
      <trkpt lat="42.96236" lon="0.08979">
        <ele>1075.18</ele>
        <time>2021-12-19T14:05:57Z</time>
      </trkpt>
      <trkpt lat="42.96237" lon="0.09003">
        <ele>1074.03</ele>
        <time>2021-12-19T14:06:06Z</time>
      </trkpt>
    </trkseg>
  </trk>
</gpx>